sensor_id;sensor_type;location;lat;lon;timestamp;temperature;humidity
14370;DHT22;7268;50.792;0.252;2024-01-30T00:01:03;11.00;99.90
14370;DHT22;7268;50.792;0.252;2024-01-30T00:03:30;11.00;99.90
14370;DHT22;7268;50.792;0.252;2024-01-30T00:05:57;11.00;99.90
14370;DHT22;7268;50.792;0.252;2024-01-30T00:08:26;11.00;99.90
14370;DHT22;7268;50.792;0.252;2024-01-30T00:10:52;11.00;99.90
14370;DHT22;7268;50.792;0.252;2024-01-30T00:13:19;11.00;99.90
14370;DHT22;7268;50.792;0.252;2024-01-30T00:15:47;11.00;99.90
14370;DHT22;7268;50.792;0.252;2024-01-30T00:18:14;11.00;99.90
14370;DHT22;7268;50.792;0.252;2024-01-30T00:20:41;11.00;99.90
14370;DHT22;7268;50.792;0.252;2024-01-30T00:23:12;11.00;99.90
14370;DHT22;7268;50.792;0.252;2024-01-30T00:25:39;11.00;99.90
14370;DHT22;7268;50.792;0.252;2024-01-30T00:28:06;11.00;99.90
14370;DHT22;7268;50.792;0.252;2024-01-30T00:30:33;11.00;99.90
14370;DHT22;7268;50.792;0.252;2024-01-30T00:33:00;11.00;99.90
14370;DHT22;7268;50.792;0.252;2024-01-30T00:35:27;11.00;99.90
14370;DHT22;7268;50.792;0.252;2024-01-30T00:37:56;11.00;99.90
14370;DHT22;7268;50.792;0.252;2024-01-30T00:40:26;11.10;99.90
14370;DHT22;7268;50.792;0.252;2024-01-30T00:42:53;11.20;99.90
14370;DHT22;7268;50.792;0.252;2024-01-30T00:45:20;11.20;99.90
14370;DHT22;7268;50.792;0.252;2024-01-30T00:47:47;11.20;99.90
14370;DHT22;7268;50.792;0.252;2024-01-30T00:50:14;11.20;99.90
14370;DHT22;7268;50.792;0.252;2024-01-30T00:52:41;11.20;99.90
14370;DHT22;7268;50.792;0.252;2024-01-30T00:55:09;11.20;99.90
14370;DHT22;7268;50.792;0.252;2024-01-30T00:57:36;11.20;99.90
14370;DHT22;7268;50.792;0.252;2024-01-30T01:00:04;11.20;99.90
14370;DHT22;7268;50.792;0.252;2024-01-30T01:02:34;11.20;99.90
14370;DHT22;7268;50.792;0.252;2024-01-30T01:05:02;11.20;99.90
14370;DHT22;7268;50.792;0.252;2024-01-30T01:07:29;11.20;99.90
14370;DHT22;7268;50.792;0.252;2024-01-30T01:09:56;11.20;99.90
14370;DHT22;7268;50.792;0.252;2024-01-30T01:12:23;11.20;99.90
14370;DHT22;7268;50.792;0.252;2024-01-30T01:14:51;11.10;99.90
14370;DHT22;7268;50.792;0.252;2024-01-30T01:17:17;11.10;99.90
14370;DHT22;7268;50.792;0.252;2024-01-30T01:19:45;11.10;99.90
14370;DHT22;7268;50.792;0.252;2024-01-30T01:22:12;11.10;99.90
14370;DHT22;7268;50.792;0.252;2024-01-30T01:24:39;11.10;99.90
14370;DHT22;7268;50.792;0.252;2024-01-30T01:27:06;11.00;99.90
14370;DHT22;7268;50.792;0.252;2024-01-30T01:29:35;11.10;99.90
14370;DHT22;7268;50.792;0.252;2024-01-30T01:32:02;11.00;99.90
14370;DHT22;7268;50.792;0.252;2024-01-30T01:34:29;11.00;99.90
14370;DHT22;7268;50.792;0.252;2024-01-30T01:36:57;11.00;99.90
14370;DHT22;7268;50.792;0.252;2024-01-30T01:39:23;11.00;99.90
14370;DHT22;7268;50.792;0.252;2024-01-30T01:41:51;11.00;99.90
14370;DHT22;7268;50.792;0.252;2024-01-30T01:44:18;10.90;99.90
14370;DHT22;7268;50.792;0.252;2024-01-30T01:46:46;10.90;99.90
14370;DHT22;7268;50.792;0.252;2024-01-30T01:49:14;10.80;99.90
14370;DHT22;7268;50.792;0.252;2024-01-30T01:51:43;10.80;99.90
14370;DHT22;7268;50.792;0.252;2024-01-30T01:54:12;10.70;99.90
14370;DHT22;7268;50.792;0.252;2024-01-30T01:56:39;10.60;99.90
14370;DHT22;7268;50.792;0.252;2024-01-30T01:59:07;10.60;99.90
14370;DHT22;7268;50.792;0.252;2024-01-30T02:01:38;10.60;99.90
14370;DHT22;7268;50.792;0.252;2024-01-30T02:04:08;10.50;99.90
14370;DHT22;7268;50.792;0.252;2024-01-30T02:06:35;10.50;99.90
14370;DHT22;7268;50.792;0.252;2024-01-30T02:09:02;10.40;99.90
14370;DHT22;7268;50.792;0.252;2024-01-30T02:11:31;10.40;99.90
14370;DHT22;7268;50.792;0.252;2024-01-30T02:14:02;10.30;99.90
14370;DHT22;7268;50.792;0.252;2024-01-30T02:16:33;10.30;99.90
14370;DHT22;7268;50.792;0.252;2024-01-30T02:19:00;10.20;99.90
14370;DHT22;7268;50.792;0.252;2024-01-30T02:21:27;10.20;99.90
14370;DHT22;7268;50.792;0.252;2024-01-30T02:23:55;10.10;99.90
14370;DHT22;7268;50.792;0.252;2024-01-30T02:26:23;10.00;99.90
14370;DHT22;7268;50.792;0.252;2024-01-30T02:28:50;10.00;99.90
14370;DHT22;7268;50.792;0.252;2024-01-30T02:31:17;10.00;99.90
14370;DHT22;7268;50.792;0.252;2024-01-30T02:33:44;9.90;99.90
14370;DHT22;7268;50.792;0.252;2024-01-30T02:36:10;9.90;99.90
14370;DHT22;7268;50.792;0.252;2024-01-30T02:38:40;9.80;99.90
14370;DHT22;7268;50.792;0.252;2024-01-30T02:41:07;9.80;99.90
14370;DHT22;7268;50.792;0.252;2024-01-30T02:43:38;9.70;99.90
14370;DHT22;7268;50.792;0.252;2024-01-30T02:46:05;9.70;99.90
14370;DHT22;7268;50.792;0.252;2024-01-30T02:48:32;9.80;99.90
14370;DHT22;7268;50.792;0.252;2024-01-30T02:50:59;9.90;99.90
14370;DHT22;7268;50.792;0.252;2024-01-30T02:53:26;9.90;99.90
14370;DHT22;7268;50.792;0.252;2024-01-30T02:55:53;9.90;99.90
14370;DHT22;7268;50.792;0.252;2024-01-30T02:58:21;9.90;99.90
14370;DHT22;7268;50.792;0.252;2024-01-30T03:00:48;9.90;99.90
14370;DHT22;7268;50.792;0.252;2024-01-30T03:03:15;9.80;99.90
14370;DHT22;7268;50.792;0.252;2024-01-30T03:05:42;9.80;99.90
14370;DHT22;7268;50.792;0.252;2024-01-30T03:08:11;9.80;99.90
14370;DHT22;7268;50.792;0.252;2024-01-30T03:10:38;9.70;99.90
14370;DHT22;7268;50.792;0.252;2024-01-30T03:13:05;9.70;99.90
14370;DHT22;7268;50.792;0.252;2024-01-30T03:15:32;9.70;99.90
14370;DHT22;7268;50.792;0.252;2024-01-30T03:17:59;9.60;99.90
14370;DHT22;7268;50.792;0.252;2024-01-30T03:20:26;9.60;99.90
14370;DHT22;7268;50.792;0.252;2024-01-30T03:22:55;9.50;99.90
14370;DHT22;7268;50.792;0.252;2024-01-30T03:25:22;9.50;99.90
14370;DHT22;7268;50.792;0.252;2024-01-30T03:27:49;9.50;99.90
14370;DHT22;7268;50.792;0.252;2024-01-30T03:30:18;9.50;99.90
14370;DHT22;7268;50.792;0.252;2024-01-30T03:32:45;9.50;99.90
14370;DHT22;7268;50.792;0.252;2024-01-30T03:35:12;9.40;99.90
14370;DHT22;7268;50.792;0.252;2024-01-30T03:37:39;9.50;99.90
14370;DHT22;7268;50.792;0.252;2024-01-30T03:40:06;9.50;99.90
14370;DHT22;7268;50.792;0.252;2024-01-30T03:42:33;9.40;99.90
14370;DHT22;7268;50.792;0.252;2024-01-30T03:45:01;9.40;99.90
14370;DHT22;7268;50.792;0.252;2024-01-30T03:47:28;9.50;99.90
14370;DHT22;7268;50.792;0.252;2024-01-30T03:49:55;9.50;99.90
14370;DHT22;7268;50.792;0.252;2024-01-30T03:52:22;9.50;99.90
14370;DHT22;7268;50.792;0.252;2024-01-30T03:54:49;9.40;99.90
14370;DHT22;7268;50.792;0.252;2024-01-30T03:57:16;9.40;99.90
14370;DHT22;7268;50.792;0.252;2024-01-30T03:59:43;9.40;99.90
14370;DHT22;7268;50.792;0.252;2024-01-30T04:02:11;9.40;99.90
14370;DHT22;7268;50.792;0.252;2024-01-30T04:04:41;9.40;99.90
14370;DHT22;7268;50.792;0.252;2024-01-30T04:07:08;9.40;99.90
14370;DHT22;7268;50.792;0.252;2024-01-30T04:09:36;9.30;99.90
14370;DHT22;7268;50.792;0.252;2024-01-30T04:12:03;9.30;99.90
14370;DHT22;7268;50.792;0.252;2024-01-30T04:14:30;9.20;99.90
14370;DHT22;7268;50.792;0.252;2024-01-30T04:16:57;9.20;99.90
14370;DHT22;7268;50.792;0.252;2024-01-30T04:19:24;9.10;99.90
14370;DHT22;7268;50.792;0.252;2024-01-30T04:21:51;9.20;99.90
14370;DHT22;7268;50.792;0.252;2024-01-30T04:24:21;9.10;99.90
14370;DHT22;7268;50.792;0.252;2024-01-30T04:26:47;9.20;99.90
14370;DHT22;7268;50.792;0.252;2024-01-30T04:29:14;9.20;99.90
14370;DHT22;7268;50.792;0.252;2024-01-30T04:31:41;9.10;99.90
14370;DHT22;7268;50.792;0.252;2024-01-30T04:34:08;9.10;99.90
14370;DHT22;7268;50.792;0.252;2024-01-30T04:36:35;9.10;99.90
14370;DHT22;7268;50.792;0.252;2024-01-30T04:39:02;9.10;99.90
14370;DHT22;7268;50.792;0.252;2024-01-30T04:41:30;9.10;99.90
14370;DHT22;7268;50.792;0.252;2024-01-30T04:43:58;9.10;99.90
14370;DHT22;7268;50.792;0.252;2024-01-30T04:46:25;9.00;99.90
14370;DHT22;7268;50.792;0.252;2024-01-30T04:48:55;8.90;99.90
14370;DHT22;7268;50.792;0.252;2024-01-30T04:51:22;8.90;99.90
14370;DHT22;7268;50.792;0.252;2024-01-30T04:53:49;8.80;99.90
14370;DHT22;7268;50.792;0.252;2024-01-30T04:56:16;8.80;99.90
14370;DHT22;7268;50.792;0.252;2024-01-30T04:58:43;8.70;99.90
14370;DHT22;7268;50.792;0.252;2024-01-30T05:01:15;8.70;99.90
14370;DHT22;7268;50.792;0.252;2024-01-30T05:03:43;8.70;99.90
14370;DHT22;7268;50.792;0.252;2024-01-30T05:06:10;8.80;99.90
14370;DHT22;7268;50.792;0.252;2024-01-30T05:08:37;8.80;99.90
14370;DHT22;7268;50.792;0.252;2024-01-30T05:11:05;8.80;99.90
14370;DHT22;7268;50.792;0.252;2024-01-30T05:13:32;8.90;99.90
14370;DHT22;7268;50.792;0.252;2024-01-30T05:16:01;8.90;99.90
14370;DHT22;7268;50.792;0.252;2024-01-30T05:18:28;8.90;99.90
14370;DHT22;7268;50.792;0.252;2024-01-30T05:20:55;8.90;99.90
14370;DHT22;7268;50.792;0.252;2024-01-30T05:23:22;8.90;99.90
14370;DHT22;7268;50.792;0.252;2024-01-30T05:25:49;8.90;99.90
14370;DHT22;7268;50.792;0.252;2024-01-30T05:28:16;8.80;99.90
14370;DHT22;7268;50.792;0.252;2024-01-30T05:30:43;8.80;99.90
14370;DHT22;7268;50.792;0.252;2024-01-30T05:33:10;8.80;99.90
14370;DHT22;7268;50.792;0.252;2024-01-30T05:35:39;8.70;99.90
14370;DHT22;7268;50.792;0.252;2024-01-30T05:38:06;8.70;99.90
14370;DHT22;7268;50.792;0.252;2024-01-30T05:40:33;8.70;99.90
14370;DHT22;7268;50.792;0.252;2024-01-30T05:43:02;8.60;99.90
14370;DHT22;7268;50.792;0.252;2024-01-30T05:45:29;8.60;99.90
14370;DHT22;7268;50.792;0.252;2024-01-30T05:47:56;8.50;99.90
14370;DHT22;7268;50.792;0.252;2024-01-30T05:50:23;8.50;99.90
14370;DHT22;7268;50.792;0.252;2024-01-30T05:52:52;8.60;99.90
14370;DHT22;7268;50.792;0.252;2024-01-30T05:55:19;8.50;99.90
14370;DHT22;7268;50.792;0.252;2024-01-30T05:57:46;8.50;99.90
14370;DHT22;7268;50.792;0.252;2024-01-30T06:00:13;8.50;99.90
14370;DHT22;7268;50.792;0.252;2024-01-30T06:02:40;8.50;99.90
14370;DHT22;7268;50.792;0.252;2024-01-30T06:05:08;8.40;99.90
14370;DHT22;7268;50.792;0.252;2024-01-30T06:07:35;8.50;99.90
14370;DHT22;7268;50.792;0.252;2024-01-30T06:10:03;8.40;99.90
14370;DHT22;7268;50.792;0.252;2024-01-30T06:12:30;8.30;99.90
14370;DHT22;7268;50.792;0.252;2024-01-30T06:14:57;8.40;99.90
14370;DHT22;7268;50.792;0.252;2024-01-30T06:17:24;8.40;99.90
14370;DHT22;7268;50.792;0.252;2024-01-30T06:19:51;8.50;99.90
14370;DHT22;7268;50.792;0.252;2024-01-30T06:22:18;8.40;99.90
14370;DHT22;7268;50.792;0.252;2024-01-30T06:24:45;8.50;99.90
14370;DHT22;7268;50.792;0.252;2024-01-30T06:27:15;8.40;99.90
14370;DHT22;7268;50.792;0.252;2024-01-30T06:29:46;8.50;99.90
14370;DHT22;7268;50.792;0.252;2024-01-30T06:32:13;8.50;99.90
14370;DHT22;7268;50.792;0.252;2024-01-30T06:34:41;8.50;99.90
14370;DHT22;7268;50.792;0.252;2024-01-30T06:37:08;8.50;99.90
14370;DHT22;7268;50.792;0.252;2024-01-30T06:39:35;8.60;99.90
14370;DHT22;7268;50.792;0.252;2024-01-30T06:42:02;8.60;99.90
14370;DHT22;7268;50.792;0.252;2024-01-30T06:44:29;8.60;99.90
14370;DHT22;7268;50.792;0.252;2024-01-30T06:46:59;8.60;99.90
14370;DHT22;7268;50.792;0.252;2024-01-30T06:49:26;8.60;99.90
14370;DHT22;7268;50.792;0.252;2024-01-30T06:51:53;8.60;99.90
14370;DHT22;7268;50.792;0.252;2024-01-30T06:54:20;8.60;99.90
14370;DHT22;7268;50.792;0.252;2024-01-30T06:56:47;8.60;99.90
14370;DHT22;7268;50.792;0.252;2024-01-30T06:59:13;8.60;99.90
14370;DHT22;7268;50.792;0.252;2024-01-30T07:01:40;8.60;99.90
14370;DHT22;7268;50.792;0.252;2024-01-30T07:04:07;8.50;99.90
14370;DHT22;7268;50.792;0.252;2024-01-30T07:06:34;8.50;99.90
14370;DHT22;7268;50.792;0.252;2024-01-30T07:09:01;8.50;99.90
14370;DHT22;7268;50.792;0.252;2024-01-30T07:11:30;8.50;99.90
14370;DHT22;7268;50.792;0.252;2024-01-30T07:13:57;8.40;99.90
14370;DHT22;7268;50.792;0.252;2024-01-30T07:16:24;8.40;99.90
14370;DHT22;7268;50.792;0.252;2024-01-30T07:18:51;8.40;99.90
14370;DHT22;7268;50.792;0.252;2024-01-30T07:21:18;8.40;99.90
14370;DHT22;7268;50.792;0.252;2024-01-30T07:23:50;8.30;99.90
14370;DHT22;7268;50.792;0.252;2024-01-30T07:26:17;8.30;99.90
14370;DHT22;7268;50.792;0.252;2024-01-30T07:28:44;8.30;99.90
14370;DHT22;7268;50.792;0.252;2024-01-30T07:31:11;8.20;99.90
14370;DHT22;7268;50.792;0.252;2024-01-30T07:33:38;8.20;99.90
14370;DHT22;7268;50.792;0.252;2024-01-30T07:36:05;8.20;99.90
14370;DHT22;7268;50.792;0.252;2024-01-30T07:38:32;8.20;99.90
14370;DHT22;7268;50.792;0.252;2024-01-30T07:41:00;8.20;99.90
14370;DHT22;7268;50.792;0.252;2024-01-30T07:43:27;8.20;99.90
14370;DHT22;7268;50.792;0.252;2024-01-30T07:45:54;8.20;99.90
14370;DHT22;7268;50.792;0.252;2024-01-30T07:48:20;8.20;99.90
14370;DHT22;7268;50.792;0.252;2024-01-30T07:50:47;8.20;99.90
14370;DHT22;7268;50.792;0.252;2024-01-30T07:53:14;8.20;99.90
14370;DHT22;7268;50.792;0.252;2024-01-30T07:55:41;8.20;99.90
14370;DHT22;7268;50.792;0.252;2024-01-30T07:58:10;8.20;99.90
14370;DHT22;7268;50.792;0.252;2024-01-30T08:00:37;8.20;99.90
14370;DHT22;7268;50.792;0.252;2024-01-30T08:03:04;8.20;99.90
14370;DHT22;7268;50.792;0.252;2024-01-30T08:05:31;8.20;99.90
14370;DHT22;7268;50.792;0.252;2024-01-30T08:07:58;8.20;99.90
14370;DHT22;7268;50.792;0.252;2024-01-30T08:10:25;8.20;99.90
14370;DHT22;7268;50.792;0.252;2024-01-30T08:12:52;8.20;99.90
14370;DHT22;7268;50.792;0.252;2024-01-30T08:15:19;8.20;99.90
14370;DHT22;7268;50.792;0.252;2024-01-30T08:17:46;8.20;99.90
14370;DHT22;7268;50.792;0.252;2024-01-30T08:20:13;8.20;99.90
14370;DHT22;7268;50.792;0.252;2024-01-30T08:22:41;8.20;99.90
14370;DHT22;7268;50.792;0.252;2024-01-30T08:25:08;8.20;99.90
14370;DHT22;7268;50.792;0.252;2024-01-30T08:27:37;8.20;99.90
14370;DHT22;7268;50.792;0.252;2024-01-30T08:30:06;8.20;99.90
14370;DHT22;7268;50.792;0.252;2024-01-30T08:32:33;8.20;99.90
14370;DHT22;7268;50.792;0.252;2024-01-30T08:35:00;8.30;99.90
14370;DHT22;7268;50.792;0.252;2024-01-30T08:37:30;8.30;99.90
14370;DHT22;7268;50.792;0.252;2024-01-30T08:39:57;8.20;99.90
14370;DHT22;7268;50.792;0.252;2024-01-30T08:42:25;8.20;99.90
14370;DHT22;7268;50.792;0.252;2024-01-30T08:44:52;8.20;99.90
14370;DHT22;7268;50.792;0.252;2024-01-30T08:47:20;8.20;99.90
14370;DHT22;7268;50.792;0.252;2024-01-30T08:49:47;8.20;99.90
14370;DHT22;7268;50.792;0.252;2024-01-30T08:52:14;8.20;99.90
14370;DHT22;7268;50.792;0.252;2024-01-30T08:54:40;8.20;99.90
14370;DHT22;7268;50.792;0.252;2024-01-30T08:57:07;8.20;99.90
14370;DHT22;7268;50.792;0.252;2024-01-30T08:59:34;8.20;99.90
14370;DHT22;7268;50.792;0.252;2024-01-30T09:02:01;8.30;99.90
14370;DHT22;7268;50.792;0.252;2024-01-30T09:04:38;8.30;99.90
14370;DHT22;7268;50.792;0.252;2024-01-30T09:07:07;8.40;99.90
14370;DHT22;7268;50.792;0.252;2024-01-30T09:09:39;8.30;99.90
14370;DHT22;7268;50.792;0.252;2024-01-30T09:12:09;8.30;99.90
14370;DHT22;7268;50.792;0.252;2024-01-30T09:14:39;8.40;99.90
14370;DHT22;7268;50.792;0.252;2024-01-30T09:17:07;8.40;99.90
14370;DHT22;7268;50.792;0.252;2024-01-30T09:19:34;8.40;99.90
14370;DHT22;7268;50.792;0.252;2024-01-30T09:22:02;8.40;99.90
14370;DHT22;7268;50.792;0.252;2024-01-30T09:24:29;8.40;99.90
14370;DHT22;7268;50.792;0.252;2024-01-30T09:26:56;8.40;99.90
14370;DHT22;7268;50.792;0.252;2024-01-30T09:29:23;8.40;99.90
14370;DHT22;7268;50.792;0.252;2024-01-30T09:31:50;8.40;99.90
14370;DHT22;7268;50.792;0.252;2024-01-30T09:34:18;8.40;99.90
14370;DHT22;7268;50.792;0.252;2024-01-30T09:36:45;8.50;99.90
14370;DHT22;7268;50.792;0.252;2024-01-30T09:39:12;8.50;99.90
14370;DHT22;7268;50.792;0.252;2024-01-30T09:41:47;8.50;99.90
14370;DHT22;7268;50.792;0.252;2024-01-30T09:44:16;8.50;99.90
14370;DHT22;7268;50.792;0.252;2024-01-30T09:46:47;8.50;99.90
14370;DHT22;7268;50.792;0.252;2024-01-30T09:49:17;8.50;99.90
14370;DHT22;7268;50.792;0.252;2024-01-30T09:51:48;8.50;99.90
14370;DHT22;7268;50.792;0.252;2024-01-30T09:54:16;8.50;99.90
14370;DHT22;7268;50.792;0.252;2024-01-30T09:56:44;8.50;99.90
14370;DHT22;7268;50.792;0.252;2024-01-30T09:59:11;8.50;99.90
14370;DHT22;7268;50.792;0.252;2024-01-30T10:01:38;8.50;99.90
14370;DHT22;7268;50.792;0.252;2024-01-30T10:04:07;8.60;99.90
14370;DHT22;7268;50.792;0.252;2024-01-30T10:06:35;8.70;99.90
14370;DHT22;7268;50.792;0.252;2024-01-30T10:09:01;8.80;99.90
14370;DHT22;7268;50.792;0.252;2024-01-30T10:11:28;8.90;99.90
14370;DHT22;7268;50.792;0.252;2024-01-30T10:13:55;8.80;99.90
14370;DHT22;7268;50.792;0.252;2024-01-30T10:16:22;8.90;99.90
14370;DHT22;7268;50.792;0.252;2024-01-30T10:18:50;8.90;99.90
14370;DHT22;7268;50.792;0.252;2024-01-30T10:21:18;9.00;99.90
14370;DHT22;7268;50.792;0.252;2024-01-30T10:23:45;9.00;99.90
14370;DHT22;7268;50.792;0.252;2024-01-30T10:26:12;8.90;99.90
14370;DHT22;7268;50.792;0.252;2024-01-30T10:28:40;8.90;99.90
14370;DHT22;7268;50.792;0.252;2024-01-30T10:31:07;8.80;99.90
14370;DHT22;7268;50.792;0.252;2024-01-30T10:33:34;8.80;99.90
14370;DHT22;7268;50.792;0.252;2024-01-30T10:36:05;8.90;99.90
14370;DHT22;7268;50.792;0.252;2024-01-30T10:38:33;8.90;99.90
14370;DHT22;7268;50.792;0.252;2024-01-30T10:41:01;9.00;99.90
14370;DHT22;7268;50.792;0.252;2024-01-30T10:43:33;8.90;99.90
14370;DHT22;7268;50.792;0.252;2024-01-30T10:46:20;8.90;99.90
14370;DHT22;7268;50.792;0.252;2024-01-30T10:48:57;9.10;99.90
14370;DHT22;7268;50.792;0.252;2024-01-30T10:51:28;9.10;99.90
14370;DHT22;7268;50.792;0.252;2024-01-30T10:53:56;9.00;99.90
14370;DHT22;7268;50.792;0.252;2024-01-30T10:56:25;8.90;99.90
14370;DHT22;7268;50.792;0.252;2024-01-30T10:58:52;8.80;99.90
14370;DHT22;7268;50.792;0.252;2024-01-30T11:01:23;8.80;99.90
14370;DHT22;7268;50.792;0.252;2024-01-30T11:03:51;8.80;99.90
14370;DHT22;7268;50.792;0.252;2024-01-30T11:06:21;8.90;99.90
14370;DHT22;7268;50.792;0.252;2024-01-30T11:09:12;8.90;99.90
14370;DHT22;7268;50.792;0.252;2024-01-30T11:11:57;8.90;99.90
14370;DHT22;7268;50.792;0.252;2024-01-30T11:14:29;8.90;99.90
14370;DHT22;7268;50.792;0.252;2024-01-30T11:17:00;8.90;99.90
14370;DHT22;7268;50.792;0.252;2024-01-30T11:19:32;8.90;99.90
14370;DHT22;7268;50.792;0.252;2024-01-30T11:21:59;8.90;99.90
14370;DHT22;7268;50.792;0.252;2024-01-30T11:24:27;8.90;99.90
14370;DHT22;7268;50.792;0.252;2024-01-30T11:26:58;8.90;99.90
14370;DHT22;7268;50.792;0.252;2024-01-30T11:29:29;8.90;99.90
14370;DHT22;7268;50.792;0.252;2024-01-30T11:31:58;8.90;99.90
14370;DHT22;7268;50.792;0.252;2024-01-30T11:34:25;8.90;99.90
14370;DHT22;7268;50.792;0.252;2024-01-30T11:37:00;8.90;99.90
14370;DHT22;7268;50.792;0.252;2024-01-30T11:39:30;9.00;99.90
14370;DHT22;7268;50.792;0.252;2024-01-30T11:41:57;9.20;99.90
14370;DHT22;7268;50.792;0.252;2024-01-30T11:44:25;9.00;99.90
14370;DHT22;7268;50.792;0.252;2024-01-30T11:46:52;9.00;99.90
14370;DHT22;7268;50.792;0.252;2024-01-30T11:49:19;9.00;99.90
14370;DHT22;7268;50.792;0.252;2024-01-30T11:51:47;9.00;99.90
14370;DHT22;7268;50.792;0.252;2024-01-30T11:54:17;9.20;99.90
14370;DHT22;7268;50.792;0.252;2024-01-30T11:56:44;9.10;99.90
14370;DHT22;7268;50.792;0.252;2024-01-30T11:59:11;9.10;99.90
14370;DHT22;7268;50.792;0.252;2024-01-30T12:01:39;8.90;99.90
14370;DHT22;7268;50.792;0.252;2024-01-30T12:04:07;8.80;99.90
14370;DHT22;7268;50.792;0.252;2024-01-30T12:06:37;8.90;99.90
14370;DHT22;7268;50.792;0.252;2024-01-30T12:09:09;8.80;99.90
14370;DHT22;7268;50.792;0.252;2024-01-30T12:11:46;8.80;99.90
14370;DHT22;7268;50.792;0.252;2024-01-30T12:14:15;8.80;99.90
14370;DHT22;7268;50.792;0.252;2024-01-30T12:16:43;8.80;99.90
14370;DHT22;7268;50.792;0.252;2024-01-30T12:19:09;8.80;99.90
14370;DHT22;7268;50.792;0.252;2024-01-30T12:21:38;8.90;99.90
14370;DHT22;7268;50.792;0.252;2024-01-30T12:24:05;8.90;99.90
14370;DHT22;7268;50.792;0.252;2024-01-30T12:26:34;8.80;99.90
14370;DHT22;7268;50.792;0.252;2024-01-30T12:29:04;8.90;99.90
14370;DHT22;7268;50.792;0.252;2024-01-30T12:31:32;8.90;99.90
14370;DHT22;7268;50.792;0.252;2024-01-30T12:34:00;8.80;99.90
14370;DHT22;7268;50.792;0.252;2024-01-30T12:36:29;8.80;99.90
14370;DHT22;7268;50.792;0.252;2024-01-30T12:38:57;8.80;99.90
14370;DHT22;7268;50.792;0.252;2024-01-30T12:41:25;8.80;99.90
14370;DHT22;7268;50.792;0.252;2024-01-30T12:43:57;8.80;99.90
14370;DHT22;7268;50.792;0.252;2024-01-30T12:46:30;8.80;99.90
14370;DHT22;7268;50.792;0.252;2024-01-30T12:48:57;8.70;99.90
14370;DHT22;7268;50.792;0.252;2024-01-30T12:51:24;8.70;99.90
14370;DHT22;7268;50.792;0.252;2024-01-30T12:53:52;8.50;99.90
14370;DHT22;7268;50.792;0.252;2024-01-30T12:56:19;8.60;99.90
14370;DHT22;7268;50.792;0.252;2024-01-30T12:58:46;8.60;99.90
14370;DHT22;7268;50.792;0.252;2024-01-30T13:01:17;8.70;99.90
14370;DHT22;7268;50.792;0.252;2024-01-30T13:03:45;8.60;99.90
14370;DHT22;7268;50.792;0.252;2024-01-30T13:06:12;8.60;99.90
14370;DHT22;7268;50.792;0.252;2024-01-30T13:08:39;8.60;99.90
14370;DHT22;7268;50.792;0.252;2024-01-30T13:11:06;8.60;99.90
14370;DHT22;7268;50.792;0.252;2024-01-30T13:13:45;8.50;99.90
14370;DHT22;7268;50.792;0.252;2024-01-30T13:16:12;8.50;99.90
14370;DHT22;7268;50.792;0.252;2024-01-30T13:18:39;8.60;99.90
14370;DHT22;7268;50.792;0.252;2024-01-30T13:21:06;8.50;99.90
14370;DHT22;7268;50.792;0.252;2024-01-30T13:23:34;8.50;99.90
14370;DHT22;7268;50.792;0.252;2024-01-30T13:26:04;8.50;99.90
14370;DHT22;7268;50.792;0.252;2024-01-30T13:28:32;8.50;99.90
14370;DHT22;7268;50.792;0.252;2024-01-30T13:31:00;8.60;99.90
14370;DHT22;7268;50.792;0.252;2024-01-30T13:33:27;8.60;99.90
14370;DHT22;7268;50.792;0.252;2024-01-30T13:35:55;8.60;99.90
14370;DHT22;7268;50.792;0.252;2024-01-30T13:38:21;8.60;99.90
14370;DHT22;7268;50.792;0.252;2024-01-30T13:40:48;8.50;99.90
14370;DHT22;7268;50.792;0.252;2024-01-30T13:43:17;8.50;99.90
14370;DHT22;7268;50.792;0.252;2024-01-30T13:45:44;8.50;99.90
14370;DHT22;7268;50.792;0.252;2024-01-30T13:48:12;8.50;99.90
14370;DHT22;7268;50.792;0.252;2024-01-30T13:50:39;8.50;99.90
14370;DHT22;7268;50.792;0.252;2024-01-30T13:53:06;8.40;99.90
14370;DHT22;7268;50.792;0.252;2024-01-30T13:55:34;8.40;99.90
14370;DHT22;7268;50.792;0.252;2024-01-30T13:58:01;8.40;99.90
14370;DHT22;7268;50.792;0.252;2024-01-30T14:00:28;8.40;99.90
14370;DHT22;7268;50.792;0.252;2024-01-30T14:02:55;8.40;99.90
14370;DHT22;7268;50.792;0.252;2024-01-30T14:05:24;8.40;99.90
14370;DHT22;7268;50.792;0.252;2024-01-30T14:07:54;8.40;99.90
14370;DHT22;7268;50.792;0.252;2024-01-30T14:10:21;8.40;99.90
14370;DHT22;7268;50.792;0.252;2024-01-30T14:12:48;8.30;99.90
14370;DHT22;7268;50.792;0.252;2024-01-30T14:15:15;8.30;99.90
14370;DHT22;7268;50.792;0.252;2024-01-30T14:17:54;8.40;99.90
14370;DHT22;7268;50.792;0.252;2024-01-30T14:20:22;8.40;99.90
14370;DHT22;7268;50.792;0.252;2024-01-30T14:22:49;8.40;99.90
14370;DHT22;7268;50.792;0.252;2024-01-30T14:25:16;8.30;99.90
14370;DHT22;7268;50.792;0.252;2024-01-30T14:27:43;8.30;99.90
14370;DHT22;7268;50.792;0.252;2024-01-30T14:30:10;8.30;99.90
14370;DHT22;7268;50.792;0.252;2024-01-30T14:32:38;8.30;99.90
14370;DHT22;7268;50.792;0.252;2024-01-30T14:35:07;8.40;99.90
14370;DHT22;7268;50.792;0.252;2024-01-30T14:37:36;8.40;99.90
14370;DHT22;7268;50.792;0.252;2024-01-30T14:40:03;8.40;99.90
14370;DHT22;7268;50.792;0.252;2024-01-30T14:42:33;8.30;99.90
14370;DHT22;7268;50.792;0.252;2024-01-30T14:45:02;8.30;99.90
14370;DHT22;7268;50.792;0.252;2024-01-30T14:47:29;8.30;99.90
14370;DHT22;7268;50.792;0.252;2024-01-30T14:49:57;8.20;99.90
14370;DHT22;7268;50.792;0.252;2024-01-30T14:52:24;8.30;99.90
14370;DHT22;7268;50.792;0.252;2024-01-30T14:54:52;8.30;99.90
14370;DHT22;7268;50.792;0.252;2024-01-30T14:57:19;8.30;99.90
14370;DHT22;7268;50.792;0.252;2024-01-30T14:59:46;8.20;99.90
14370;DHT22;7268;50.792;0.252;2024-01-30T15:02:15;8.20;99.90
14370;DHT22;7268;50.792;0.252;2024-01-30T15:04:42;8.20;99.90
14370;DHT22;7268;50.792;0.252;2024-01-30T15:07:08;8.20;99.90
14370;DHT22;7268;50.792;0.252;2024-01-30T15:09:40;8.20;99.90
14370;DHT22;7268;50.792;0.252;2024-01-30T15:12:07;8.20;99.90
14370;DHT22;7268;50.792;0.252;2024-01-30T15:14:34;8.20;99.90
14370;DHT22;7268;50.792;0.252;2024-01-30T15:17:01;8.20;99.90
14370;DHT22;7268;50.792;0.252;2024-01-30T15:19:29;8.10;99.90
14370;DHT22;7268;50.792;0.252;2024-01-30T15:21:56;8.20;99.90
14370;DHT22;7268;50.792;0.252;2024-01-30T15:24:23;8.10;99.90
14370;DHT22;7268;50.792;0.252;2024-01-30T15:26:51;8.10;99.90
14370;DHT22;7268;50.792;0.252;2024-01-30T15:29:18;8.10;99.90
14370;DHT22;7268;50.792;0.252;2024-01-30T15:31:48;8.10;99.90
14370;DHT22;7268;50.792;0.252;2024-01-30T15:34:15;8.10;99.90
14370;DHT22;7268;50.792;0.252;2024-01-30T15:36:42;8.10;99.90
14370;DHT22;7268;50.792;0.252;2024-01-30T15:39:09;8.10;99.90
14370;DHT22;7268;50.792;0.252;2024-01-30T15:41:37;8.10;99.90
14370;DHT22;7268;50.792;0.252;2024-01-30T15:44:05;8.10;99.90
14370;DHT22;7268;50.792;0.252;2024-01-30T15:46:31;8.00;99.90
14370;DHT22;7268;50.792;0.252;2024-01-30T15:48:59;8.10;99.90
14370;DHT22;7268;50.792;0.252;2024-01-30T15:51:27;8.10;99.90
14370;DHT22;7268;50.792;0.252;2024-01-30T15:53:55;8.10;99.90
14370;DHT22;7268;50.792;0.252;2024-01-30T15:56:23;8.00;99.90
14370;DHT22;7268;50.792;0.252;2024-01-30T15:58:53;8.00;99.90
14370;DHT22;7268;50.792;0.252;2024-01-30T16:01:19;8.00;99.90
14370;DHT22;7268;50.792;0.252;2024-01-30T16:03:47;8.00;99.90